createdAt,value
2018-06-10T00:00:25.793Z,21.5
2018-06-10T00:01:25.575Z,21.5
2018-06-10T00:04:10.993Z,21.5
2018-06-10T00:05:11.259Z,21.5
2018-06-10T00:06:11.318Z,21.47
2018-06-10T00:07:11.342Z,21.47
2018-06-10T00:08:26.005Z,21.38
2018-06-10T00:09:11.381Z,21.27
2018-06-10T00:10:26.071Z,21.32
2018-06-10T00:11:11.155Z,21.25
2018-06-10T00:12:11.477Z,21.28
2018-06-10T00:13:11.466Z,21.21
2018-06-10T00:14:11.511Z,21.19
2018-06-10T00:15:11.531Z,21.19
2018-06-10T00:16:26.224Z,21.24
2018-06-10T00:18:11.607Z,21.19
2018-06-10T00:20:11.647Z,21.21
2018-06-10T00:21:26.340Z,21.27
2018-06-10T00:22:11.734Z,21.21
2018-06-10T00:24:26.432Z,21.17
2018-06-10T00:25:11.776Z,21.22
2018-06-10T00:26:11.835Z,21.12
2018-06-10T00:27:11.827Z,21.07
2018-06-10T00:28:11.887Z,21.01
2018-06-10T00:29:12.006Z,20.89
2018-06-10T00:30:11.659Z,20.89
2018-06-10T00:31:26.592Z,20.87
2018-06-10T00:32:11.967Z,20.89
2018-06-10T00:33:12.011Z,20.95
2018-06-10T00:35:12.063Z,20.92
2018-06-10T00:36:11.815Z,20.88
2018-06-10T00:37:12.164Z,20.94
2018-06-10T00:38:12.113Z,20.97
2018-06-10T00:39:12.168Z,20.92
2018-06-10T00:40:12.180Z,20.85
2018-06-10T00:41:12.195Z,20.79
2018-06-10T00:42:12.214Z,20.72
2018-06-10T00:44:12.266Z,20.88
2018-06-10T00:45:12.321Z,20.85
2018-06-10T00:46:12.070Z,20.88
2018-06-10T00:47:12.378Z,20.84
2018-06-10T00:49:12.387Z,20.8
2018-06-10T00:50:12.444Z,20.76
2018-06-10T00:52:12.496Z,20.73
2018-06-10T00:53:12.492Z,20.69
2018-06-10T00:54:12.553Z,20.66
2018-06-10T00:55:12.546Z,20.66
2018-06-10T00:56:27.233Z,20.52
2018-06-10T00:57:12.347Z,20.51
2018-06-10T00:58:12.639Z,20.51
2018-06-10T00:59:27.323Z,20.41
2018-06-10T01:00:12.671Z,20.43
2018-06-10T01:01:12.729Z,20.39
2018-06-10T01:02:12.720Z,20.5
2018-06-10T01:04:12.796Z,20.51
2018-06-10T01:05:12.814Z,20.54
2018-06-10T01:06:12.827Z,20.61
2018-06-10T01:07:12.882Z,20.55
2018-06-10T01:08:12.618Z,20.43
2018-06-10T01:09:13.171Z,20.42
2018-06-10T01:10:12.929Z,20.43
2018-06-10T01:11:13.036Z,20.47
2018-06-10T01:12:12.979Z,20.48
2018-06-10T01:13:27.674Z,20.52
2018-06-10T01:14:13.044Z,20.5
2018-06-10T01:15:13.085Z,20.5
2018-06-10T01:16:13.106Z,20.51
2018-06-10T01:17:12.843Z,20.42
2018-06-10T01:19:27.812Z,20.28
2018-06-10T01:21:27.619Z,20.21
2018-06-10T01:23:13.029Z,20.21
2018-06-10T01:24:13.309Z,20.23
2018-06-10T01:25:13.326Z,20.23
2018-06-10T01:26:13.331Z,20.24
2018-06-10T01:27:13.094Z,20.24
2018-06-10T01:28:13.144Z,20.23
2018-06-10T01:29:13.161Z,20.26
2018-06-10T01:30:13.198Z,20.21
2018-06-10T01:31:13.456Z,20.2
2018-06-10T01:32:13.504Z,20.16
2018-06-10T01:33:13.264Z,20.17
2018-06-10T01:34:13.547Z,20.13
2018-06-10T01:35:28.236Z,19.99
2018-06-10T01:36:13.580Z,19.96
2018-06-10T01:37:13.607Z,20.01
2018-06-10T01:38:13.659Z,19.91
2018-06-10T01:39:13.671Z,19.92
2018-06-10T01:40:13.717Z,19.84
2018-06-10T01:41:13.707Z,19.8
2018-06-10T01:43:13.757Z,19.81
2018-06-10T01:44:28.451Z,19.69
2018-06-10T01:45:13.826Z,19.78
2018-06-10T01:46:13.867Z,19.69
2018-06-10T01:47:13.890Z,19.78
2018-06-10T01:48:13.895Z,19.77
2018-06-10T01:49:14.022Z,19.98
2018-06-10T01:50:13.935Z,19.87
2018-06-10T01:51:28.642Z,19.88
2018-06-10T01:52:13.984Z,19.91
2018-06-10T01:53:14.053Z,19.96
2018-06-10T01:54:14.058Z,19.78
2018-06-10T01:55:13.830Z,19.81
2018-06-10T01:56:14.087Z,19.74
2018-06-10T01:57:14.114Z,19.71
2018-06-10T01:58:14.154Z,19.55
2018-06-10T01:59:14.197Z,19.63
2018-06-10T02:00:14.187Z,19.71
2018-06-10T02:01:14.235Z,19.69
2018-06-10T02:02:14.255Z,19.56
2018-06-10T02:03:14.292Z,19.61
2018-06-10T02:04:14.031Z,19.59
2018-06-10T02:05:14.080Z,19.59
2018-06-10T02:06:29.000Z,19.61
2018-06-10T02:07:14.380Z,19.51
2018-06-10T02:08:14.384Z,19.63
2018-06-10T02:09:14.443Z,19.68
2018-06-10T02:10:13.940Z,19.61
2018-06-10T02:11:14.228Z,19.66
2018-06-10T02:12:14.486Z,19.61
2018-06-10T02:13:14.546Z,19.56
2018-06-10T02:14:14.547Z,19.55
2018-06-10T02:15:14.579Z,19.74
2018-06-10T02:16:28.993Z,19.63
2018-06-10T02:17:14.646Z,19.77
2018-06-10T02:18:14.122Z,19.73
2018-06-10T02:19:14.700Z,19.74
2018-06-10T02:20:14.724Z,19.71
2018-06-10T02:21:14.729Z,19.71
2018-06-10T02:22:14.760Z,19.61
2018-06-10T02:23:14.503Z,19.66
2018-06-10T02:24:14.820Z,19.71
2018-06-10T02:25:14.848Z,19.73
2018-06-10T02:26:14.852Z,19.78
2018-06-10T02:27:14.895Z,19.69
2018-06-10T02:28:14.630Z,19.71
2018-06-10T02:29:14.421Z,19.77
2018-06-10T02:30:14.988Z,19.62
2018-06-10T02:31:14.985Z,19.63
2018-06-10T02:32:29.393Z,19.58
2018-06-10T02:33:15.015Z,19.65
2018-06-10T02:34:15.076Z,19.51
2018-06-10T02:35:15.068Z,19.54
2018-06-10T02:36:15.128Z,19.48
2018-06-10T02:37:15.117Z,19.47
2018-06-10T02:38:29.819Z,19.44
2018-06-10T02:39:15.169Z,19.36
2018-06-10T02:40:15.197Z,19.4
2018-06-10T02:41:15.240Z,19.5
2018-06-10T02:42:15.256Z,19.5
2018-06-10T02:43:15.297Z,19.61
2018-06-10T02:44:15.293Z,19.58
2018-06-10T02:45:15.344Z,19.56
2018-06-10T02:46:15.338Z,19.5
2018-06-10T02:47:15.135Z,19.58
2018-06-10T02:48:30.049Z,19.63
2018-06-10T02:49:15.448Z,19.62
2018-06-10T02:50:30.119Z,19.62
2018-06-10T02:51:15.471Z,19.58
2018-06-10T02:52:15.503Z,19.59
2018-06-10T02:53:15.550Z,19.55
2018-06-10T02:54:30.201Z,19.56
2018-06-10T02:55:15.334Z,19.68
2018-06-10T02:56:15.593Z,19.56
2018-06-10T02:57:15.620Z,19.68
2018-06-10T02:58:15.389Z,19.65
2018-06-10T03:00:15.724Z,19.56
2018-06-10T03:01:15.712Z,19.44
2018-06-10T03:03:30.464Z,19.5
2018-06-10T03:04:15.531Z,19.46
2018-06-10T03:05:15.588Z,19.51
2018-06-10T03:06:15.861Z,19.55
2018-06-10T03:07:15.898Z,19.56
2018-06-10T03:08:15.909Z,19.56
2018-06-10T03:09:15.966Z,19.48
2018-06-10T03:10:30.598Z,19.51
2018-06-10T03:11:15.970Z,19.44
2018-06-10T03:12:16.008Z,19.51
2018-06-10T03:13:16.044Z,19.61
2018-06-10T03:14:15.811Z,19.62
2018-06-10T03:15:16.072Z,19.54
2018-06-10T03:16:15.858Z,19.58
2018-06-10T03:17:15.859Z,19.71
2018-06-10T03:18:16.168Z,19.62
2018-06-10T03:19:16.162Z,19.63
2018-06-10T03:20:16.212Z,19.65
2018-06-10T03:21:30.626Z,19.58
2018-06-10T03:22:16.261Z,19.55
2018-06-10T03:23:16.294Z,19.73
2018-06-10T03:24:16.317Z,19.66
2018-06-10T03:25:16.315Z,19.71
2018-06-10T03:26:30.756Z,19.74
2018-06-10T03:27:16.364Z,19.76
2018-06-10T03:28:16.404Z,19.74
2018-06-10T03:29:16.412Z,19.8
2018-06-10T03:30:16.476Z,19.83
2018-06-10T03:31:16.490Z,19.83
2018-06-10T03:32:16.245Z,19.87
2018-06-10T03:33:16.512Z,19.96
2018-06-10T03:34:16.279Z,20.02
2018-06-10T03:35:16.325Z,20.01
2018-06-10T03:36:31.251Z,20.11
2018-06-10T03:37:31.290Z,20.06
2018-06-10T03:38:16.664Z,20.05
2018-06-10T03:39:16.682Z,20.14
2018-06-10T03:40:16.707Z,20.23
2018-06-10T03:41:31.117Z,20.2
2018-06-10T03:43:16.508Z,20.28
2018-06-10T03:44:16.817Z,20.42
2018-06-10T03:45:16.824Z,20.43
2018-06-10T03:46:16.868Z,20.41
2018-06-10T03:47:31.526Z,20.39
2018-06-10T03:49:16.912Z,20.38
2018-06-10T03:50:16.963Z,20.5
2018-06-10T03:51:16.703Z,20.41
2018-06-10T03:52:17.006Z,20.54
2018-06-10T03:53:17.011Z,20.67
2018-06-10T03:54:16.806Z,20.62
2018-06-10T03:55:17.093Z,20.66
2018-06-10T03:56:17.112Z,20.69
2018-06-10T03:57:16.859Z,20.73
2018-06-10T03:58:17.138Z,20.7
2018-06-10T03:59:16.928Z,20.66
2018-06-10T04:00:17.207Z,20.85
2018-06-10T04:01:16.957Z,20.88
2018-06-10T04:02:17.269Z,20.85
2018-06-10T04:03:17.270Z,20.82
2018-06-10T04:05:17.066Z,20.91
2018-06-10T04:06:17.109Z,20.82
2018-06-10T04:07:17.105Z,20.84
2018-06-10T04:08:17.397Z,20.95
2018-06-10T04:09:32.094Z,21.01
2018-06-10T04:10:17.448Z,21.14
2018-06-10T04:11:17.494Z,21.42
2018-06-10T04:12:17.504Z,21.34
2018-06-10T04:13:32.194Z,21.42
2018-06-10T04:14:17.294Z,21.38
2018-06-10T04:15:17.598Z,21.4
2018-06-10T04:16:17.592Z,21.52
2018-06-10T04:17:17.643Z,21.42
2018-06-10T04:18:17.643Z,21.49
2018-06-10T04:19:17.704Z,21.58
2018-06-10T04:20:17.435Z,21.62
2018-06-10T04:22:17.771Z,21.8
2018-06-10T04:23:17.529Z,21.86
2018-06-10T04:24:17.280Z,21.94
2018-06-10T04:25:17.838Z,22.02
2018-06-10T04:26:17.876Z,22.24
2018-06-10T04:27:17.888Z,22.3
2018-06-10T04:28:17.935Z,22.39
2018-06-10T04:29:32.584Z,22.6
2018-06-10T04:30:17.980Z,22.55
2018-06-10T04:31:18.081Z,22.75
2018-06-10T04:32:18.015Z,22.75
2018-06-10T04:33:17.766Z,22.77
2018-06-10T04:34:18.080Z,22.82
2018-06-10T04:35:17.583Z,22.83
2018-06-10T04:36:18.100Z,23
2018-06-10T04:37:17.900Z,23.38
2018-06-10T04:38:18.153Z,23.76
2018-06-10T04:39:18.181Z,23.84
2018-06-10T04:40:18.218Z,23.84
2018-06-10T04:41:18.266Z,23.83
2018-06-10T04:42:18.007Z,23.7
2018-06-10T04:43:18.316Z,23.78
2018-06-10T04:44:18.070Z,23.7
2018-06-10T04:45:33.015Z,23.51
2018-06-10T04:46:18.106Z,23.54
2018-06-10T04:47:32.806Z,23.65
2018-06-10T04:48:18.416Z,23.72
2018-06-10T04:49:18.550Z,23.73
2018-06-10T04:50:18.485Z,24.05
2018-06-10T04:51:18.541Z,24.9
2018-06-10T04:52:18.290Z,25.82
2018-06-10T04:53:18.560Z,26.52
2018-06-10T04:54:18.329Z,27.04
2018-06-10T04:55:18.600Z,27.28
2018-06-10T04:56:18.657Z,27.62
2018-06-10T04:57:18.658Z,27.84
2018-06-10T04:58:18.716Z,28.11
2018-06-10T04:59:18.742Z,28.44
2018-06-10T05:00:18.487Z,28.74
2018-06-10T05:01:33.447Z,29.24
2018-06-10T05:02:18.802Z,29.68
2018-06-10T05:04:18.597Z,30.67
2018-06-10T05:05:18.659Z,31.26
2018-06-10T05:06:18.949Z,31.12
2018-06-10T05:07:18.696Z,31.16
2018-06-10T05:08:19.010Z,31.04
2018-06-10T05:09:19.037Z,31.12
2018-06-10T05:10:18.782Z,31.29
2018-06-10T05:11:19.105Z,31.44
2018-06-10T05:12:33.769Z,31.63
2018-06-10T05:13:19.144Z,31.62
2018-06-10T05:14:18.928Z,31.56
2018-06-10T05:15:19.238Z,31.73
2018-06-10T05:16:33.917Z,31.48
2018-06-10T05:17:19.270Z,31.63
2018-06-10T05:18:19.330Z,32.14
2018-06-10T05:19:19.332Z,32.33
2018-06-10T05:20:19.539Z,32.33
2018-06-10T05:21:34.066Z,32.65
2018-06-10T05:22:19.461Z,32.94
2018-06-10T05:23:19.228Z,33.29
2018-06-10T05:24:19.512Z,33.6
2018-06-10T05:25:34.193Z,34.21
2018-06-10T05:26:19.563Z,34.35
2018-06-10T05:27:19.625Z,34.66
2018-06-10T05:28:19.632Z,35.07
2018-06-10T05:29:19.432Z,34.75
2018-06-10T05:30:19.708Z,34.85
2018-06-10T05:31:19.762Z,35.19
2018-06-10T05:32:19.770Z,35.55
2018-06-10T05:33:19.804Z,36.12
2018-06-10T05:35:19.899Z,35.25
2018-06-10T05:36:19.907Z,34.62
2018-06-10T05:37:19.969Z,34.17
2018-06-10T05:38:19.974Z,33.78
2018-06-10T05:39:20.035Z,33.32
2018-06-10T05:40:19.532Z,33.19
2018-06-10T05:41:20.105Z,32.96
2018-06-10T05:42:20.107Z,33.09
2018-06-10T05:43:20.159Z,33.19
2018-06-10T05:44:20.197Z,33.06
2018-06-10T05:45:20.240Z,32.7
2018-06-10T05:46:20.010Z,32.67
2018-06-10T05:47:20.279Z,33.16
2018-06-10T05:48:34.983Z,33.75
2018-06-10T05:49:20.338Z,33.97
2018-06-10T05:50:20.143Z,34.16
2018-06-10T05:51:20.532Z,34.15
2018-06-10T05:52:20.210Z,34.3
2018-06-10T05:54:20.513Z,34.72
2018-06-10T05:55:20.554Z,34.99
2018-06-10T05:56:35.241Z,35.21
2018-06-10T05:57:35.294Z,35.82
2018-06-10T05:58:20.384Z,36.03
2018-06-10T05:59:20.715Z,36.15
2018-06-10T06:00:20.750Z,36.39
2018-06-10T06:02:20.807Z,35.84
2018-06-10T06:04:35.533Z,36.69
2018-06-10T06:05:20.633Z,37.13
2018-06-10T06:06:20.933Z,37.62
2018-06-10T06:07:20.956Z,37.63
2018-06-10T06:08:21.022Z,37.67
2018-06-10T06:09:21.040Z,37.7
2018-06-10T06:10:20.836Z,38.01
2018-06-10T06:11:21.099Z,38.04
2018-06-10T06:12:21.175Z,37.63
2018-06-10T06:13:21.273Z,38.15
2018-06-10T06:14:35.877Z,38.54
2018-06-10T06:15:21.258Z,38.74
2018-06-10T06:16:21.315Z,39.06
2018-06-10T06:17:21.085Z,38.88
2018-06-10T06:18:21.097Z,39.1
2018-06-10T06:19:21.421Z,39.11
2018-06-10T06:20:36.094Z,39.26
2018-06-10T06:21:21.489Z,39.25
2018-06-10T06:22:21.505Z,39.54
2018-06-10T06:23:21.576Z,40.01
2018-06-10T06:24:21.610Z,40.18
2018-06-10T06:25:21.727Z,40.42
2018-06-10T06:26:21.665Z,40.84
2018-06-10T06:28:21.502Z,40.35
2018-06-10T06:29:21.772Z,40.39
2018-06-10T06:30:21.837Z,40.07
2018-06-10T06:31:21.865Z,40.95
2018-06-10T06:32:21.882Z,41.08
2018-06-10T06:34:21.988Z,40.99
2018-06-10T06:35:22.011Z,40.62
2018-06-10T06:36:36.720Z,39.86
2018-06-10T06:37:21.817Z,39.67
2018-06-10T06:38:22.134Z,40.07
2018-06-10T06:39:22.231Z,39.84
2018-06-10T06:40:22.230Z,39.97
2018-06-10T06:42:22.273Z,40.27
2018-06-10T06:43:22.329Z,40.22
2018-06-10T06:44:37.012Z,40.61
2018-06-10T06:45:37.074Z,40.55
2018-06-10T06:46:22.432Z,41.11
2018-06-10T06:47:22.233Z,41.26
2018-06-10T06:48:22.528Z,41.55
2018-06-10T06:49:22.561Z,41.21
2018-06-10T06:50:22.578Z,41.13
2018-06-10T06:51:37.029Z,41.58
2018-06-10T06:52:22.428Z,41.78
2018-06-10T06:53:22.701Z,41.7
2018-06-10T06:54:22.770Z,41.36
2018-06-10T06:55:22.777Z,41.08
2018-06-10T06:56:22.847Z,40.69
2018-06-10T06:57:22.890Z,40.92
2018-06-10T06:58:37.582Z,40.84
2018-06-10T06:59:22.943Z,40.89
2018-06-10T07:00:37.653Z,41.01
2018-06-10T07:01:23.017Z,41.48
2018-06-10T07:02:23.082Z,41.8
2018-06-10T07:03:22.833Z,41.23
2018-06-10T07:05:23.196Z,40.22
2018-06-10T07:06:23.236Z,40.42
2018-06-10T07:07:23.252Z,40.84
2018-06-10T07:08:23.031Z,40.61
2018-06-10T07:10:22.856Z,41.25
2018-06-10T07:11:23.438Z,41.21
2018-06-10T07:12:23.448Z,41.44
2018-06-10T07:13:23.258Z,40.74
2018-06-10T07:14:23.574Z,39.96
2018-06-10T07:15:38.231Z,38.49
2018-06-10T07:16:23.634Z,38.22
2018-06-10T07:17:23.389Z,37.72
2018-06-10T07:18:23.711Z,37.18
2018-06-10T07:19:23.742Z,37.15
2018-06-10T07:20:23.544Z,36.85
2018-06-10T07:21:23.801Z,36.87
2018-06-10T07:22:23.577Z,36.87
2018-06-10T07:23:38.620Z,36.83
2018-06-10T07:24:23.649Z,36.83
2018-06-10T07:25:23.712Z,37.05
2018-06-10T07:26:23.744Z,36.98
2018-06-10T07:27:23.766Z,36.95
2018-06-10T07:28:24.087Z,36.95
2018-06-10T07:29:23.869Z,37.07
2018-06-10T07:30:23.903Z,37.69
2018-06-10T07:31:23.673Z,38.35
2018-06-10T07:32:24.308Z,38.76
2018-06-10T07:33:24.015Z,38.18
2018-06-10T07:34:24.022Z,38.38
2018-06-10T07:35:24.346Z,38.52
2018-06-10T07:36:24.102Z,38.66
2018-06-10T07:37:24.426Z,39.06
2018-06-10T07:38:24.428Z,39.25
2018-06-10T07:39:39.150Z,39.85
2018-06-10T07:40:24.283Z,39.66
2018-06-10T07:41:24.565Z,39.35
2018-06-10T07:42:24.575Z,38.87
2018-06-10T07:43:24.644Z,38.71
2018-06-10T07:44:24.751Z,38.66
2018-06-10T07:45:24.718Z,38.6
2018-06-10T07:47:24.840Z,38.35
2018-06-10T07:48:25.078Z,38.75
2018-06-10T07:49:24.837Z,39.07
2018-06-10T07:50:39.556Z,39.75
2018-06-10T07:51:24.657Z,39.57
2018-06-10T07:52:24.982Z,39.81
2018-06-10T07:53:24.730Z,40.01
2018-06-10T07:54:25.038Z,40.19
2018-06-10T07:55:39.741Z,40.04
2018-06-10T07:56:24.864Z,39.96
2018-06-10T07:57:25.134Z,40.06
2018-06-10T07:58:25.250Z,39.78
2018-06-10T08:00:25.264Z,39.1
2018-06-10T08:01:25.027Z,38.72
2018-06-10T08:02:25.092Z,38.74
2018-06-10T08:03:25.129Z,38.32
2018-06-10T08:04:40.066Z,38.31
2018-06-10T08:06:40.134Z,38.87
2018-06-10T08:07:25.548Z,38.83
2018-06-10T08:08:25.292Z,39.09
2018-06-10T08:09:25.615Z,38.98
2018-06-10T08:10:25.650Z,39.09
2018-06-10T08:11:40.068Z,39.4
2018-06-10T08:12:25.707Z,38.87
2018-06-10T08:13:25.734Z,38.53
2018-06-10T08:14:25.537Z,38.54
2018-06-10T08:15:25.816Z,39.09
2018-06-10T08:16:25.616Z,39.23
2018-06-10T08:17:25.884Z,39.54
2018-06-10T08:18:25.950Z,40.15
2018-06-10T08:19:40.627Z,40.26
2018-06-10T08:20:26.019Z,39.96
2018-06-10T08:21:26.063Z,39.64
2018-06-10T08:22:26.068Z,39.81
2018-06-10T08:23:26.102Z,39.96
2018-06-10T08:24:26.168Z,39.7
2018-06-10T08:25:26.200Z,39.72
2018-06-10T08:26:40.903Z,40.72
2018-06-10T08:27:26.008Z,41.01
2018-06-10T08:28:26.065Z,41.21
2018-06-10T08:29:26.332Z,40.91
2018-06-10T08:30:26.389Z,40.92
2018-06-10T08:31:26.158Z,40.89
2018-06-10T08:32:26.216Z,40.89
2018-06-10T08:33:26.510Z,40.91
2018-06-10T08:34:26.545Z,40.7
2018-06-10T08:35:26.559Z,41.13
2018-06-10T08:36:41.258Z,41.02
2018-06-10T08:37:26.827Z,40.61
2018-06-10T08:38:26.672Z,40.7
2018-06-10T08:39:41.390Z,41.08
2018-06-10T08:40:26.514Z,41.28
2018-06-10T08:41:26.800Z,40.76
2018-06-10T08:42:26.833Z,40.53
2018-06-10T08:43:26.601Z,39.81
2018-06-10T08:44:26.928Z,39.67
2018-06-10T08:45:26.961Z,38.95
2018-06-10T08:46:26.995Z,38.9
2018-06-10T08:47:27.043Z,39.13
2018-06-10T08:48:27.059Z,38.9
2018-06-10T08:49:27.174Z,38.98
2018-06-10T08:50:26.900Z,39.01
2018-06-10T08:51:26.933Z,38.68
2018-06-10T08:52:41.608Z,38.65
2018-06-10T08:53:27.239Z,38.47
2018-06-10T08:54:27.302Z,38.63
2018-06-10T08:55:27.317Z,38.18
2018-06-10T08:56:27.381Z,37.82
2018-06-10T08:58:42.105Z,37.63
2018-06-10T08:59:27.459Z,37.75
2018-06-10T09:00:27.239Z,37.72
2018-06-10T09:01:27.568Z,37.49
2018-06-10T09:02:42.295Z,37.28
2018-06-10T09:03:27.639Z,37.63
2018-06-10T09:04:27.388Z,38.4
2018-06-10T09:05:27.449Z,39.11
2018-06-10T09:06:27.720Z,38.86
2018-06-10T09:07:27.776Z,39.04
2018-06-10T09:08:27.383Z,39.51
2018-06-10T09:09:27.856Z,39.33
2018-06-10T09:10:27.631Z,38.84
2018-06-10T09:11:27.642Z,38.71
2018-06-10T09:13:27.975Z,39.22
2018-06-10T09:14:42.688Z,39.98
2018-06-10T09:15:28.067Z,40.35
2018-06-10T09:16:27.565Z,40.19
2018-06-10T09:17:28.123Z,40.7
2018-06-10T09:18:28.184Z,40.51
2018-06-10T09:19:27.944Z,40.34
2018-06-10T09:20:28.254Z,40.42
2018-06-10T09:21:28.003Z,39.94
2018-06-10T09:22:28.483Z,39.26
2018-06-10T09:23:28.076Z,39.16
2018-06-10T09:24:28.139Z,39.21
2018-06-10T09:25:28.411Z,39.36
2018-06-10T09:26:43.126Z,39.03
2018-06-10T09:27:28.487Z,39.41
2018-06-10T09:28:28.532Z,39.92
2018-06-10T09:29:28.323Z,40.16
2018-06-10T09:30:43.271Z,40.82
2018-06-10T09:31:28.366Z,41.16
2018-06-10T09:32:28.689Z,41.39
2018-06-10T09:33:28.701Z,41.42
2018-06-10T09:34:28.756Z,41.52
2018-06-10T09:35:28.872Z,41.23
2018-06-10T09:36:28.578Z,41.28
2018-06-10T09:37:28.877Z,41.87
2018-06-10T09:38:28.899Z,41.98
2018-06-10T09:40:28.715Z,41.73
2018-06-10T09:42:29.054Z,41.66
2018-06-10T09:43:28.809Z,41.11
2018-06-10T09:44:28.589Z,40.74
2018-06-10T09:45:29.268Z,40.58
2018-06-10T09:46:43.846Z,40.12
2018-06-10T09:47:29.247Z,39.91
2018-06-10T09:48:29.252Z,39.66
2018-06-10T09:49:29.052Z,39.29
2018-06-10T09:50:29.319Z,39.06
2018-06-10T09:51:28.844Z,38.56
2018-06-10T09:52:29.460Z,38.23
2018-06-10T09:54:29.234Z,38.03
2018-06-10T09:55:30.050Z,38.03
2018-06-10T09:56:44.220Z,37.98
2018-06-10T09:57:29.577Z,37.94
2018-06-10T09:58:29.353Z,38
2018-06-10T09:59:29.394Z,37.85
2018-06-10T10:00:29.715Z,38.01
2018-06-10T10:01:44.399Z,37.57
2018-06-10T10:02:29.749Z,37.66
2018-06-10T10:03:29.557Z,37.57
2018-06-10T10:04:29.564Z,37.43
2018-06-10T10:05:29.615Z,37.17
2018-06-10T10:06:29.638Z,37.55
2018-06-10T10:07:29.696Z,37.4
2018-06-10T10:08:29.964Z,37.59
2018-06-10T10:09:44.684Z,37.86
2018-06-10T10:10:29.776Z,38.18
2018-06-10T10:11:29.869Z,38.49
2018-06-10T10:13:30.159Z,38.79
2018-06-10T10:14:30.353Z,38.79
2018-06-10T10:15:30.214Z,38.91
2018-06-10T10:16:30.277Z,38.76
2018-06-10T10:17:30.290Z,38.81
2018-06-10T10:18:30.354Z,38.81
2018-06-10T10:19:44.766Z,38.42
2018-06-10T10:20:30.149Z,38.3
2018-06-10T10:21:30.417Z,37.91
2018-06-10T10:22:30.462Z,37.59
2018-06-10T10:23:30.520Z,37.51
2018-06-10T10:25:30.448Z,37.17
2018-06-10T10:26:45.259Z,37.36
2018-06-10T10:27:30.668Z,37.34
2018-06-10T10:28:30.665Z,37.18
2018-06-10T10:29:30.703Z,36.81
2018-06-10T10:30:30.749Z,36.46
2018-06-10T10:31:30.277Z,36.43
2018-06-10T10:32:30.847Z,36.47
2018-06-10T10:33:45.603Z,36.47
2018-06-10T10:34:30.642Z,36.69
2018-06-10T10:35:30.909Z,37
2018-06-10T10:36:30.960Z,37.02
2018-06-10T10:37:31.008Z,37.13
2018-06-10T10:38:30.533Z,37.09
2018-06-10T10:39:30.793Z,37.32
2018-06-10T10:40:30.839Z,37.21
2018-06-10T10:41:30.883Z,37.15
2018-06-10T10:42:31.179Z,37.21
2018-06-10T10:43:45.847Z,36.94
2018-06-10T10:44:30.727Z,36.99
2018-06-10T10:45:31.257Z,36.59
2018-06-10T10:46:31.043Z,36.59
2018-06-10T10:47:31.326Z,36.69
2018-06-10T10:48:31.124Z,36.31
2018-06-10T10:49:46.074Z,36.03
2018-06-10T10:50:31.428Z,35.93
2018-06-10T10:51:31.212Z,35.82
2018-06-10T10:53:31.559Z,35.81
2018-06-10T10:54:31.563Z,35.85
2018-06-10T10:55:31.625Z,36.16
2018-06-10T10:56:31.382Z,36.44
2018-06-10T10:57:31.693Z,36.03
2018-06-10T10:58:31.693Z,35.71
2018-06-10T10:59:31.755Z,35.62
2018-06-10T11:00:31.519Z,36.05
2018-06-10T11:01:31.830Z,36.41
2018-06-10T11:02:31.855Z,36.83
2018-06-10T11:03:31.631Z,37.1
2018-06-10T11:04:31.916Z,37.15
2018-06-10T11:05:46.352Z,37.31
2018-06-10T11:06:31.711Z,37.36
2018-06-10T11:07:46.421Z,37.62
2018-06-10T11:08:32.038Z,37.66
2018-06-10T11:09:32.076Z,37.85
2018-06-10T11:10:31.853Z,37.98
2018-06-10T11:11:31.911Z,38.04
2018-06-10T11:12:32.219Z,37.82
2018-06-10T11:13:32.210Z,37.89
2018-06-10T11:14:32.255Z,37.72
2018-06-10T11:15:32.306Z,37.47
2018-06-10T11:16:31.792Z,37.44
2018-06-10T11:17:47.023Z,37.37
2018-06-10T11:18:32.395Z,37.12
2018-06-10T11:19:32.416Z,37.21
2018-06-10T11:20:32.615Z,37.37
2018-06-10T11:21:47.152Z,37.57
2018-06-10T11:22:32.287Z,37.49
2018-06-10T11:23:32.547Z,37.31
2018-06-10T11:25:32.457Z,37.2
2018-06-10T11:26:32.393Z,37.18
2018-06-10T11:27:32.811Z,36.98
2018-06-10T11:28:32.727Z,36.94
2018-06-10T11:29:32.769Z,36.54
2018-06-10T11:30:32.816Z,36.68
2018-06-10T11:31:32.822Z,36.72
2018-06-10T11:32:32.889Z,36.84
2018-06-10T11:33:32.908Z,36.87
2018-06-10T11:34:32.846Z,36.83
2018-06-10T11:35:32.962Z,36.78
2018-06-10T11:36:47.396Z,36.94
2018-06-10T11:37:32.788Z,37.09
2018-06-10T11:38:33.077Z,37.15
2018-06-10T11:39:33.123Z,37.06
2018-06-10T11:40:33.130Z,37.36
2018-06-10T11:41:33.191Z,37.34
2018-06-10T11:42:48.020Z,37.31
2018-06-10T11:43:33.245Z,37.32
2018-06-10T11:44:33.258Z,37.47
2018-06-10T11:45:33.326Z,37.25
2018-06-10T11:46:48.010Z,36.9
2018-06-10T11:47:33.361Z,36.71
2018-06-10T11:48:33.447Z,36.73
2018-06-10T11:49:33.429Z,36.65
2018-06-10T11:50:33.231Z,36.59
2018-06-10T11:51:33.496Z,36.69
2018-06-10T11:52:33.310Z,36.91
2018-06-10T11:53:33.625Z,37
2018-06-10T11:54:33.632Z,36.93
2018-06-10T11:55:33.641Z,36.88
2018-06-10T11:57:33.187Z,36.8
2018-06-10T11:58:33.747Z,36.59
2018-06-10T11:59:48.430Z,36.12
2018-06-10T12:00:33.831Z,35.68
2018-06-10T12:01:33.577Z,35.36
2018-06-10T12:02:48.550Z,35.07
2018-06-10T12:03:33.924Z,35.18
2018-06-10T12:04:33.953Z,35.15
2018-06-10T12:06:33.741Z,35.33
2018-06-10T12:07:33.804Z,35.36
2018-06-10T12:08:48.730Z,35.52
2018-06-10T12:09:33.872Z,35.25
2018-06-10T12:10:34.284Z,35
2018-06-10T12:11:34.165Z,34.97
2018-06-10T12:12:34.225Z,34.92
2018-06-10T12:13:34.230Z,34.82
2018-06-10T12:14:34.294Z,34.65
2018-06-10T12:15:34.298Z,34.59
2018-06-10T12:16:34.468Z,34.61
2018-06-10T12:17:34.376Z,34.62
2018-06-10T12:18:34.432Z,34.54
2018-06-10T12:19:34.428Z,34.37
2018-06-10T12:20:34.201Z,34.13
2018-06-10T12:21:34.522Z,33.98
2018-06-10T12:22:34.782Z,33.91
2018-06-10T12:23:34.571Z,33.95
2018-06-10T12:24:49.012Z,33.84
2018-06-10T12:25:34.644Z,33.57
2018-06-10T12:26:34.429Z,33.34
2018-06-10T12:27:34.721Z,33.19
2018-06-10T12:28:34.727Z,33.09
2018-06-10T12:29:34.507Z,32.87
2018-06-10T12:30:34.789Z,32.77
2018-06-10T12:31:34.589Z,32.33
2018-06-10T12:32:49.517Z,32.25
2018-06-10T12:33:34.700Z,32.08
2018-06-10T12:34:34.944Z,32
2018-06-10T12:35:34.698Z,31.54
2018-06-10T12:37:34.756Z,31.19
2018-06-10T12:38:35.063Z,31.25
2018-06-10T12:39:35.096Z,31.21
2018-06-10T12:40:49.790Z,31.29
2018-06-10T12:41:49.559Z,31.29
2018-06-10T12:42:35.186Z,31.38
2018-06-10T12:43:34.973Z,31.41
2018-06-10T12:44:34.986Z,31.38
2018-06-10T12:45:35.276Z,31.23
2018-06-10T12:46:35.054Z,31.21
2018-06-10T12:47:35.101Z,31.19
2018-06-10T12:48:35.395Z,31.16
2018-06-10T12:49:35.498Z,31.1
2018-06-10T12:50:35.443Z,31.07
2018-06-10T12:51:35.229Z,31.14
2018-06-10T12:52:35.513Z,31.13
2018-06-10T12:53:35.545Z,31.19
2018-06-10T12:54:35.553Z,31.09
2018-06-10T12:55:35.612Z,31.07
2018-06-10T12:56:50.287Z,31.28
2018-06-10T12:57:35.674Z,31.31
2018-06-10T12:58:35.703Z,31.34
2018-06-10T12:59:35.724Z,31.29
2018-06-10T13:00:35.481Z,31.34
2018-06-10T13:01:35.774Z,31.48
2018-06-10T13:03:35.836Z,31.65
2018-06-10T13:04:35.635Z,31.68
2018-06-10T13:05:35.896Z,31.63
2018-06-10T13:06:35.960Z,31.99
2018-06-10T13:07:35.955Z,32.18
2018-06-10T13:08:35.992Z,32.44
2018-06-10T13:09:36.033Z,32.75
2018-06-10T13:10:36.084Z,33.03
2018-06-10T13:11:50.763Z,33.29
2018-06-10T13:12:36.113Z,33.54
2018-06-10T13:13:36.176Z,33.47
2018-06-10T13:14:36.175Z,33.56
2018-06-10T13:15:36.385Z,33.69
2018-06-10T13:16:36.241Z,33.75
2018-06-10T13:17:36.303Z,33.75
2018-06-10T13:18:50.969Z,33.9
2018-06-10T13:19:36.362Z,33.91
2018-06-10T13:20:36.383Z,34
2018-06-10T13:21:36.434Z,34.31
2018-06-10T13:22:36.428Z,34.27
2018-06-10T13:23:51.143Z,34.3
2018-06-10T13:24:36.498Z,34.37
2018-06-10T13:25:36.529Z,34.58
2018-06-10T13:26:36.569Z,34.59
2018-06-10T13:27:36.735Z,34.75
2018-06-10T13:28:36.653Z,34.46
2018-06-10T13:29:36.659Z,34.37
2018-06-10T13:30:36.701Z,34.46
2018-06-10T13:31:36.721Z,34.39
2018-06-10T13:32:36.524Z,34.3
2018-06-10T13:33:36.827Z,33.94
2018-06-10T13:35:36.862Z,33.72
2018-06-10T13:36:36.647Z,33.45
2018-06-10T13:37:51.317Z,33.32
2018-06-10T13:39:37.016Z,33.12
2018-06-10T13:40:51.697Z,32.87
2018-06-10T13:41:37.069Z,32.87
2018-06-10T13:42:37.100Z,32.99
2018-06-10T13:43:51.767Z,33.07